Yusyun — JD3373 — position and weather

sailwx.info

Track history (hours):
 
Tides and Currents Weather Stations Pressure Air Temp Water Temp Dewpoint Dewpoint Depression Visibility Wind Speed Wind Dir Waves Ship Positions

Yusyun

Last reported at 2017-Dec-11 11:19 UTC. Time now 2017-Dec-13 01:47 UTC.
Position N 34°27' E 134°28'.

Length 61 m; draft 3.7 m.

Type: Cargo ship. MMSI: 431003628.

Date/timePositionNaut miles runAvg speedWind from/ knotsBaromVisibWave heightAir tempDewpointWater temp
2017-Dec-11 11:19N 34°27' E 134°28'3 9.2
2017-Dec-11 10:59N 34°28' E 134°31'4 8.9
2017-Dec-11 10:30N 34°30' E 134°36'4 8.3
2017-Dec-11 10:00N 34°31' E 134°41'4 8.1
2017-Dec-11 09:30N 34°33' E 134°45'4 8.2
2017-Dec-11 09:00N 34°34' E 134°50'4 8.1
2017-Dec-11 08:30N 34°36' E 134°54'5 8.9
2017-Dec-11 08:00N 34°38' E 134°59'5 9.3
2017-Dec-11 07:30N 34°36' E 135°05'5 9.2
2017-Dec-11 07:01N 34°37' E 135°10'5 9.4
2017-Dec-11 06:31N 34°38' E 135°16'5 9.6
2017-Dec-11 06:01N 34°42' E 135°18'0 0.2
2017-Dec-11 05:30N 34°42' E 135°18'0 0.0
2017-Dec-11 05:00N 34°42' E 135°18'0 0.0
2017-Dec-11 04:30N 34°42' E 135°18'0 0.0
2017-Dec-11 04:00N 34°42' E 135°18'0 0.0
2017-Dec-11 03:31N 34°42' E 135°18'0 0.0
2017-Dec-11 03:01N 34°42' E 135°18'0 0.0
2017-Dec-11 02:30N 34°42' E 135°18'0 0.0
2017-Dec-11 02:01N 34°42' E 135°18'0 0.0
2017-Dec-11 01:30N 34°42' E 135°18'0 0.0
2017-Dec-11 01:01N 34°42' E 135°18'0 0.0
2017-Dec-11 00:30N 34°42' E 135°18'0 0.0
2017-Dec-11 00:01N 34°42' E 135°18'0 0.0
2017-Dec-10 23:30N 34°42' E 135°18'0 0.0
2017-Dec-10 23:01N 34°42' E 135°18'0 0.0
2017-Dec-10 22:31N 34°42' E 135°18'1 1.6
2017-Dec-10 22:00N 34°43' E 135°18'0 0.1
2017-Dec-10 21:31N 34°43' E 135°18'0 0.0
2017-Dec-10 21:00N 34°43' E 135°18'0 0.0
2017-Dec-10 20:31N 34°43' E 135°18'0 0.0
2017-Dec-10 20:01N 34°43' E 135°18'0 0.0
2017-Dec-10 19:30N 34°43' E 135°18'0 0.0
2017-Dec-10 19:01N 34°43' E 135°18'0 0.0
2017-Dec-10 18:30N 34°43' E 135°18'0 0.0
2017-Dec-10 18:00N 34°43' E 135°18'0 0.0
2017-Dec-10 17:31N 34°43' E 135°18'0 0.0
2017-Dec-10 17:01N 34°43' E 135°18'0 0.0
2017-Dec-10 16:30N 34°43' E 135°18'0 0.0
2017-Dec-10 16:01N 34°43' E 135°18'0 0.0
2017-Dec-10 15:31N 34°43' E 135°18'0 0.0
2017-Dec-10 15:01N 34°43' E 135°18'0 0.0
2017-Dec-10 14:31N 34°43' E 135°18'0 0.0
2017-Dec-10 14:00N 34°43' E 135°18'0 0.0
2017-Dec-10 13:31N 34°43' E 135°18'0 0.0
2017-Dec-10 13:00N 34°43' E 135°18'0 0.0
2017-Dec-10 12:30N 34°43' E 135°18'0 0.0
2017-Dec-10 12:01N 34°43' E 135°18'0 0.0
2017-Dec-10 11:30N 34°43' E 135°18'0 0.0
2017-Dec-10 11:00N 34°43' E 135°18'0 0.0
2017-Dec-10 10:30N 34°43' E 135°18'0 0.0
2017-Dec-10 10:01N 34°43' E 135°18'0 0.0
2017-Dec-10 09:30N 34°43' E 135°18'0 0.0
2017-Dec-10 09:00N 34°43' E 135°18'0 0.0
2017-Dec-10 08:30N 34°43' E 135°18'0 0.0
2017-Dec-10 08:01N 34°43' E 135°18'0 0.0
2017-Dec-10 07:31N 34°43' E 135°18'0 0.0
2017-Dec-10 07:00N 34°43' E 135°18'0 0.0
2017-Dec-10 06:30N 34°43' E 135°18'0 0.0
2017-Dec-10 06:01N 34°43' E 135°18'0 0.0
2017-Dec-10 05:31N 34°43' E 135°18'0 0.0
2017-Dec-10 05:00N 34°43' E 135°18'0 0.0
2017-Dec-10 04:31N 34°43' E 135°18'0 0.0
2017-Dec-10 04:00N 34°43' E 135°18'0 0.0
2017-Dec-10 03:30N 34°43' E 135°18'0 0.0
2017-Dec-10 03:00N 34°43' E 135°18'0 0.0
2017-Dec-10 02:30N 34°43' E 135°18'0 0.0
2017-Dec-10 02:00N 34°43' E 135°18'0 0.0
2017-Dec-10 01:31N 34°43' E 135°18'0 0.0
2017-Dec-10 01:00N 34°43' E 135°18'0 0.0
2017-Dec-10 00:30N 34°43' E 135°18'0 0.0
2017-Dec-10 00:00N 34°43' E 135°18'0 0.0
2017-Dec-09 23:30N 34°43' E 135°18'0 0.0
2017-Dec-09 23:01N 34°43' E 135°18'0 0.1
2017-Dec-09 22:30N 34°43' E 135°18'2 3.3
2017-Dec-09 22:01N 34°41' E 135°18'5 9.8
2017-Dec-09 21:31N 34°37' E 135°14'510.9
2017-Dec-09 21:00N 34°35' E 135°08'611.2
2017-Dec-09 20:31N 34°37' E 135°01'611.8
2017-Dec-09 20:00N 34°35' E 134°54'611.6
2017-Dec-09 19:30N 34°33' E 134°48'611.2
2017-Dec-09 19:00N 34°31' E 134°42'611.4
2017-Dec-09 18:30N 34°28' E 134°35'9510.1
2017-Dec-09 09:01N 34°04' E 132°44'011.3
2017-Dec-09 09:01N 34°04' E 132°43'510.6
2017-Dec-09 08:31N 34°01' E 132°38'610.1
2017-Dec-09 07:53N 33°57' E 132°32'1410.2
2017-Dec-09 06:30N 33°50' E 132°18'611.6
2017-Dec-09 06:00N 33°50' E 132°11'910.6
2017-Dec-09 05:11N 33°53' E 132°01'1011.5
2017-Dec-09 04:20N 33°53' E 131°49'411.3
2017-Dec-09 04:00N 33°53' E 131°45'611.3
2017-Dec-09 03:30N 33°53' E 131°38'511.0
2017-Dec-09 03:00N 33°52' E 131°31'510.9
2017-Dec-09 02:30N 33°52' E 131°25'510.7
2017-Dec-09 02:01N 33°52' E 131°18'510.2
2017-Dec-09 01:30N 33°53' E 131°12'510.4
2017-Dec-09 01:01N 33°56' E 131°07'510.8
2017-Dec-09 00:30N 33°58' E 131°01'4 8.6
2017-Dec-09 00:00N 33°56' E 130°57'0 0.0
2017-Dec-08 23:30N 33°56' E 130°57'0 0.0
2017-Dec-08 23:00N 33°56' E 130°57'0 0.0
2017-Dec-08 22:30N 33°56' E 130°57'0 0.0
2017-Dec-08 22:00N 33°56' E 130°57'0 0.0
2017-Dec-08 21:30N 33°56' E 130°57'0 0.0
2017-Dec-08 21:00N 33°56' E 130°57'0 0.0
2017-Dec-08 20:30N 33°56' E 130°57'0 0.0
2017-Dec-08 20:00N 33°56' E 130°57'0 0.0
2017-Dec-08 19:30N 33°56' E 130°57'0 0.0
2017-Dec-08 19:00N 33°56' E 130°57'0 0.0
2017-Dec-08 18:30N 33°56' E 130°57'0 0.0
2017-Dec-08 18:00N 33°56' E 130°57'0 0.0
2017-Dec-08 17:30N 33°56' E 130°57'0 0.0
2017-Dec-08 17:00N 33°56' E 130°57'0 0.0
2017-Dec-08 16:30N 33°56' E 130°57'0 0.0
2017-Dec-08 16:00N 33°56' E 130°57'0 0.0
2017-Dec-08 15:30N 33°56' E 130°57'0 0.0
2017-Dec-08 15:00N 33°56' E 130°57'0 0.0
2017-Dec-08 14:30N 33°56' E 130°57'0 0.0
2017-Dec-08 14:00N 33°56' E 130°57'0 0.0
2017-Dec-08 13:31N 33°56' E 130°57'0 0.0
2017-Dec-08 13:00N 33°56' E 130°57'0 0.0
2017-Dec-08 12:30N 33°56' E 130°57'0 0.0
2017-Dec-08 12:00N 33°56' E 130°57'0 0.0
2017-Dec-08 11:30N 33°56' E 130°57'0 0.0
2017-Dec-08 11:00N 33°56' E 130°57'0 0.0
2017-Dec-08 10:30N 33°56' E 130°57'0 0.0
2017-Dec-08 10:00N 33°56' E 130°57'0 0.0
2017-Dec-08 09:30N 33°56' E 130°57'0 0.0
2017-Dec-08 09:00N 33°56' E 130°57'0 0.0
2017-Dec-08 08:30N 33°56' E 130°57'0 0.0
2017-Dec-08 08:00N 33°56' E 130°57'0 0.0
2017-Dec-08 07:30N 33°56' E 130°57'0 0.0
2017-Dec-08 07:00N 33°56' E 130°57'0 0.0
2017-Dec-08 06:30N 33°56' E 130°57'0 0.0
2017-Dec-08 06:00N 33°56' E 130°57'0 0.0
2017-Dec-08 05:30N 33°56' E 130°57'0 0.0
2017-Dec-08 05:00N 33°56' E 130°57'0 0.0
2017-Dec-08 04:30N 33°56' E 130°57'0 0.0
2017-Dec-08 04:00N 33°56' E 130°57'0 0.0
2017-Dec-08 03:31N 33°56' E 130°57'0 0.0
2017-Dec-08 03:00N 33°56' E 130°57'0 0.0
2017-Dec-08 02:30N 33°56' E 130°57'0 0.0
2017-Dec-08 02:00N 33°56' E 130°57'0 0.0
2017-Dec-08 01:30N 33°56' E 130°57'0 0.0
2017-Dec-08 01:00N 33°56' E 130°57'0 0.0
2017-Dec-08 00:30N 33°56' E 130°57'0 0.0
2017-Dec-08 00:00N 33°56' E 130°57'0 0.0
2017-Dec-07 23:31N 33°56' E 130°57'0 0.0
2017-Dec-07 23:00N 33°56' E 130°57'0 0.0
2017-Dec-07 22:30N 33°56' E 130°57'0 0.0
2017-Dec-07 22:00N 33°56' E 130°57'0 0.0
2017-Dec-07 21:30N 33°56' E 130°57'0 0.0
2017-Dec-07 21:00N 33°56' E 130°57'0 0.0
2017-Dec-07 20:30N 33°56' E 130°57'0 0.0
2017-Dec-07 20:00N 33°56' E 130°57'0 0.0
2017-Dec-07 19:30N 33°56' E 130°57'0 0.0
2017-Dec-07 19:00N 33°56' E 130°57'0 0.0
2017-Dec-07 18:30N 33°56' E 130°57'0 0.0
2017-Dec-07 18:00N 33°56' E 130°57'0 0.0
2017-Dec-07 17:30N 33°56' E 130°57'0 0.0
2017-Dec-07 17:00N 33°56' E 130°57'0 0.0
2017-Dec-07 16:30N 33°56' E 130°57'0 0.0
2017-Dec-07 16:00N 33°56' E 130°57'0 0.0
2017-Dec-07 15:30N 33°56' E 130°57'0 0.0
2017-Dec-07 15:00N 33°56' E 130°57'0 0.0
2017-Dec-07 14:30N 33°56' E 130°57'0 0.0
2017-Dec-07 14:00N 33°56' E 130°57'0 0.0
2017-Dec-07 13:30N 33°56' E 130°57'0 0.0
2017-Dec-07 13:00N 33°56' E 130°57'0 0.0
2017-Dec-07 12:30N 33°56' E 130°57'0 0.0
2017-Dec-07 12:00N 33°56' E 130°57'0 0.0
2017-Dec-07 11:30N 33°56' E 130°57'0 0.0
2017-Dec-07 11:00N 33°56' E 130°57'0 0.0
2017-Dec-07 10:30N 33°56' E 130°57'0 0.0
2017-Dec-07 10:00N 33°56' E 130°57'0 0.0
2017-Dec-07 09:31N 33°56' E 130°57'0 0.0
2017-Dec-07 09:00N 33°56' E 130°57'0 0.0
2017-Dec-07 08:30N 33°56' E 130°57'0 0.0
2017-Dec-07 08:00N 33°56' E 130°57'0 0.0
2017-Dec-07 07:30N 33°56' E 130°57'0 0.0
2017-Dec-07 07:00N 33°56' E 130°57'0 0.0
2017-Dec-07 06:30N 33°56' E 130°57'0 0.0
2017-Dec-07 06:00N 33°56' E 130°57'0 0.0
2017-Dec-07 05:30N 33°56' E 130°57'0 0.0
2017-Dec-07 05:00N 33°56' E 130°57'0 0.0
2017-Dec-07 04:31N 33°56' E 130°57'0 0.0
2017-Dec-07 04:00N 33°56' E 130°57'2 3.7
2017-Dec-07 03:30N 33°58' E 130°57'510.7
2017-Dec-07 03:00N 33°57' E 131°04'611.0
2017-Dec-07 02:30N 33°54' E 131°10'510.8
2017-Dec-07 02:00N 33°52' E 131°16'611.3
2017-Dec-07 01:30N 33°52' E 131°22'611.3
2017-Dec-07 01:00N 33°53' E 131°29'611.4
2017-Dec-07 00:30N 33°53' E 131°36'611.4
2017-Dec-06 23:59N 33°53' E 131°43'1411.1
2017-Dec-06 22:44N 33°53' E 131°60'410.4
2017-Dec-06 22:19N 33°52' E 132°05'3 9.5
2017-Dec-06 21:59N 33°50' E 132°08'1010.6
2017-Dec-06 21:04N 33°50' E 132°20'310.3
2017-Dec-06 20:48N 33°51' E 132°23'  
2017-Dec-02 10:50N 33°54' E 134°53'410.6
2017-Dec-02 10:26N 33°58' E 134°55'510.3
2017-Dec-02 09:59N 34°02' E 134°57'510.1
2017-Dec-02 09:30N 34°07' E 134°59'4 8.7
2017-Dec-02 09:00N 34°11' E 135°01'510.0
2017-Dec-02 08:30N 34°16' E 135°03'5 9.3
2017-Dec-02 08:00N 34°20' E 135°05'510.2
2017-Dec-02 07:30N 34°24' E 135°09'510.5
2017-Dec-02 07:00N 34°28' E 135°13'510.3
2017-Dec-02 06:30N 34°32' E 135°17'510.3
2017-Dec-02 06:01N 34°36' E 135°20'5 9.7
2017-Dec-02 05:31N 34°39' E 135°25'1 2.4
2017-Dec-02 05:00N 34°39' E 135°27'0 0.0
2017-Dec-02 04:30N 34°39' E 135°27'0 0.0
2017-Dec-02 04:00N 34°39' E 135°27'0 0.0
2017-Dec-02 03:30N 34°39' E 135°27'0 0.0
2017-Dec-02 03:00N 34°39' E 135°27'0 0.0
2017-Dec-02 02:30N 34°39' E 135°27'0 0.0
2017-Dec-02 02:00N 34°39' E 135°27'0 0.0
2017-Dec-02 01:30N 34°39' E 135°27'0 0.0
2017-Dec-02 01:00N 34°39' E 135°27'0 0.0
2017-Dec-02 00:30N 34°39' E 135°27'0 0.0
2017-Dec-02 00:00N 34°39' E 135°27'0 0.0
2017-Dec-01 23:30N 34°39' E 135°27'0 0.0
2017-Dec-01 23:00N 34°39' E 135°27'0 0.0
2017-Dec-01 22:30N 34°39' E 135°27'0 0.0
2017-Dec-01 22:00N 34°39' E 135°27'0 0.0
2017-Dec-01 21:30N 34°39' E 135°27'0 0.0
2017-Dec-01 21:00N 34°39' E 135°27'0 0.0
2017-Dec-01 20:30N 34°39' E 135°27'0 0.0
2017-Dec-01 20:00N 34°39' E 135°27'0 0.0
2017-Dec-01 19:30N 34°39' E 135°27'0 0.0
2017-Dec-01 19:00N 34°39' E 135°27'0 0.0
2017-Dec-01 18:30N 34°39' E 135°27'0 0.0
2017-Dec-01 18:00N 34°39' E 135°27'0 0.0
2017-Dec-01 17:30N 34°39' E 135°27'0 0.0
2017-Dec-01 17:00N 34°39' E 135°27'0 0.0
2017-Dec-01 16:30N 34°39' E 135°27'0 0.0
2017-Dec-01 16:00N 34°39' E 135°27'0 0.0
2017-Dec-01 15:30N 34°39' E 135°27'0 0.0
2017-Dec-01 15:00N 34°39' E 135°27'0 0.0
2017-Dec-01 14:30N 34°39' E 135°27'0 0.0
2017-Dec-01 14:00N 34°39' E 135°27'0 0.0
2017-Dec-01 13:30N 34°39' E 135°27'0 0.0
2017-Dec-01 13:00N 34°39' E 135°27'0 0.0
2017-Dec-01 12:30N 34°39' E 135°27'0 0.0
2017-Dec-01 12:00N 34°39' E 135°27'0 0.0
2017-Dec-01 11:30N 34°39' E 135°27'  
Track history (hours):
 
Tides and Currents Weather Stations Pressure Air Temp Water Temp Dewpoint Dewpoint Depression Visibility Wind Speed Wind Dir Waves Ship Positions

Yusyun

Last reported at 2017-Dec-11 11:19 UTC. Time now 2017-Dec-13 01:47 UTC.
Position N 34°27' E 134°28'.

Length 61 m; draft 3.7 m.

Type: Cargo ship. MMSI: 431003628.

Date/timePositionNaut miles runAvg speedWind from/ knotsBaromVisibWave heightAir tempDewpointWater temp
2017-Dec-11 11:19N 34°27' E 134°28'3 9.2
2017-Dec-11 10:59N 34°28' E 134°31'4 8.9
2017-Dec-11 10:30N 34°30' E 134°36'4 8.3
2017-Dec-11 10:00N 34°31' E 134°41'4 8.1
2017-Dec-11 09:30N 34°33' E 134°45'4 8.2
2017-Dec-11 09:00N 34°34' E 134°50'4 8.1
2017-Dec-11 08:30N 34°36' E 134°54'5 8.9
2017-Dec-11 08:00N 34°38' E 134°59'5 9.3
2017-Dec-11 07:30N 34°36' E 135°05'5 9.2
2017-Dec-11 07:01N 34°37' E 135°10'5 9.4
2017-Dec-11 06:31N 34°38' E 135°16'5 9.6
2017-Dec-11 06:01N 34°42' E 135°18'0 0.2
2017-Dec-11 05:30N 34°42' E 135°18'0 0.0
2017-Dec-11 05:00N 34°42' E 135°18'0 0.0
2017-Dec-11 04:30N 34°42' E 135°18'0 0.0
2017-Dec-11 04:00N 34°42' E 135°18'0 0.0
2017-Dec-11 03:31N 34°42' E 135°18'0 0.0
2017-Dec-11 03:01N 34°42' E 135°18'0 0.0
2017-Dec-11 02:30N 34°42' E 135°18'0 0.0
2017-Dec-11 02:01N 34°42' E 135°18'0 0.0
2017-Dec-11 01:30N 34°42' E 135°18'0 0.0
2017-Dec-11 01:01N 34°42' E 135°18'0 0.0
2017-Dec-11 00:30N 34°42' E 135°18'0 0.0
2017-Dec-11 00:01N 34°42' E 135°18'0 0.0
2017-Dec-10 23:30N 34°42' E 135°18'0 0.0
2017-Dec-10 23:01N 34°42' E 135°18'0 0.0
2017-Dec-10 22:31N 34°42' E 135°18'1 1.6
2017-Dec-10 22:00N 34°43' E 135°18'0 0.1
2017-Dec-10 21:31N 34°43' E 135°18'0 0.0
2017-Dec-10 21:00N 34°43' E 135°18'0 0.0
2017-Dec-10 20:31N 34°43' E 135°18'0 0.0
2017-Dec-10 20:01N 34°43' E 135°18'0 0.0
2017-Dec-10 19:30N 34°43' E 135°18'0 0.0
2017-Dec-10 19:01N 34°43' E 135°18'0 0.0
2017-Dec-10 18:30N 34°43' E 135°18'0 0.0
2017-Dec-10 18:00N 34°43' E 135°18'0 0.0
2017-Dec-10 17:31N 34°43' E 135°18'0 0.0
2017-Dec-10 17:01N 34°43' E 135°18'0 0.0
2017-Dec-10 16:30N 34°43' E 135°18'0 0.0
2017-Dec-10 16:01N 34°43' E 135°18'0 0.0
2017-Dec-10 15:31N 34°43' E 135°18'0 0.0
2017-Dec-10 15:01N 34°43' E 135°18'0 0.0
2017-Dec-10 14:31N 34°43' E 135°18'0 0.0
2017-Dec-10 14:00N 34°43' E 135°18'0 0.0
2017-Dec-10 13:31N 34°43' E 135°18'0 0.0
2017-Dec-10 13:00N 34°43' E 135°18'0 0.0
2017-Dec-10 12:30N 34°43' E 135°18'0 0.0
2017-Dec-10 12:01N 34°43' E 135°18'0 0.0
2017-Dec-10 11:30N 34°43' E 135°18'0 0.0
2017-Dec-10 11:00N 34°43' E 135°18'0 0.0
2017-Dec-10 10:30N 34°43' E 135°18'0 0.0
2017-Dec-10 10:01N 34°43' E 135°18'0 0.0
2017-Dec-10 09:30N 34°43' E 135°18'0 0.0
2017-Dec-10 09:00N 34°43' E 135°18'0 0.0
2017-Dec-10 08:30N 34°43' E 135°18'0 0.0
2017-Dec-10 08:01N 34°43' E 135°18'0 0.0
2017-Dec-10 07:31N 34°43' E 135°18'0 0.0
2017-Dec-10 07:00N 34°43' E 135°18'0 0.0
2017-Dec-10 06:30N 34°43' E 135°18'0 0.0
2017-Dec-10 06:01N 34°43' E 135°18'0 0.0
2017-Dec-10 05:31N 34°43' E 135°18'0 0.0
2017-Dec-10 05:00N 34°43' E 135°18'0 0.0
2017-Dec-10 04:31N 34°43' E 135°18'0 0.0
2017-Dec-10 04:00N 34°43' E 135°18'0 0.0
2017-Dec-10 03:30N 34°43' E 135°18'0 0.0
2017-Dec-10 03:00N 34°43' E 135°18'0 0.0
2017-Dec-10 02:30N 34°43' E 135°18'0 0.0
2017-Dec-10 02:00N 34°43' E 135°18'0 0.0
2017-Dec-10 01:31N 34°43' E 135°18'0 0.0
2017-Dec-10 01:00N 34°43' E 135°18'0 0.0
2017-Dec-10 00:30N 34°43' E 135°18'0 0.0
2017-Dec-10 00:00N 34°43' E 135°18'0 0.0
2017-Dec-09 23:30N 34°43' E 135°18'0 0.0
2017-Dec-09 23:01N 34°43' E 135°18'0 0.1
2017-Dec-09 22:30N 34°43' E 135°18'2 3.3
2017-Dec-09 22:01N 34°41' E 135°18'5 9.8
2017-Dec-09 21:31N 34°37' E 135°14'510.9
2017-Dec-09 21:00N 34°35' E 135°08'611.2
2017-Dec-09 20:31N 34°37' E 135°01'611.8
2017-Dec-09 20:00N 34°35' E 134°54'611.6
2017-Dec-09 19:30N 34°33' E 134°48'611.2
2017-Dec-09 19:00N 34°31' E 134°42'611.4
2017-Dec-09 18:30N 34°28' E 134°35'9510.1
2017-Dec-09 09:01N 34°04' E 132°44'011.3
2017-Dec-09 09:01N 34°04' E 132°43'510.6
2017-Dec-09 08:31N 34°01' E 132°38'610.1
2017-Dec-09 07:53N 33°57' E 132°32'1410.2
2017-Dec-09 06:30N 33°50' E 132°18'611.6
2017-Dec-09 06:00N 33°50' E 132°11'910.6
2017-Dec-09 05:11N 33°53' E 132°01'1011.5
2017-Dec-09 04:20N 33°53' E 131°49'411.3
2017-Dec-09 04:00N 33°53' E 131°45'611.3
2017-Dec-09 03:30N 33°53' E 131°38'511.0
2017-Dec-09 03:00N 33°52' E 131°31'510.9
2017-Dec-09 02:30N 33°52' E 131°25'510.7
2017-Dec-09 02:01N 33°52' E 131°18'510.2
2017-Dec-09 01:30N 33°53' E 131°12'510.4
2017-Dec-09 01:01N 33°56' E 131°07'510.8
2017-Dec-09 00:30N 33°58' E 131°01'4 8.6
2017-Dec-09 00:00N 33°56' E 130°57'0 0.0
2017-Dec-08 23:30N 33°56' E 130°57'0 0.0
2017-Dec-08 23:00N 33°56' E 130°57'0 0.0
2017-Dec-08 22:30N 33°56' E 130°57'0 0.0
2017-Dec-08 22:00N 33°56' E 130°57'0 0.0
2017-Dec-08 21:30N 33°56' E 130°57'0 0.0
2017-Dec-08 21:00N 33°56' E 130°57'0 0.0
2017-Dec-08 20:30N 33°56' E 130°57'0 0.0
2017-Dec-08 20:00N 33°56' E 130°57'0 0.0
2017-Dec-08 19:30N 33°56' E 130°57'0 0.0
2017-Dec-08 19:00N 33°56' E 130°57'0 0.0
2017-Dec-08 18:30N 33°56' E 130°57'0 0.0
2017-Dec-08 18:00N 33°56' E 130°57'0 0.0
2017-Dec-08 17:30N 33°56' E 130°57'0 0.0
2017-Dec-08 17:00N 33°56' E 130°57'0 0.0
2017-Dec-08 16:30N 33°56' E 130°57'0 0.0
2017-Dec-08 16:00N 33°56' E 130°57'0 0.0
2017-Dec-08 15:30N 33°56' E 130°57'0 0.0
2017-Dec-08 15:00N 33°56' E 130°57'0 0.0
2017-Dec-08 14:30N 33°56' E 130°57'0 0.0
2017-Dec-08 14:00N 33°56' E 130°57'0 0.0
2017-Dec-08 13:31N 33°56' E 130°57'0 0.0
2017-Dec-08 13:00N 33°56' E 130°57'0 0.0
2017-Dec-08 12:30N 33°56' E 130°57'0 0.0
2017-Dec-08 12:00N 33°56' E 130°57'0 0.0
2017-Dec-08 11:30N 33°56' E 130°57'0 0.0
2017-Dec-08 11:00N 33°56' E 130°57'0 0.0
2017-Dec-08 10:30N 33°56' E 130°57'0 0.0
2017-Dec-08 10:00N 33°56' E 130°57'0 0.0
2017-Dec-08 09:30N 33°56' E 130°57'0 0.0
2017-Dec-08 09:00N 33°56' E 130°57'0 0.0
2017-Dec-08 08:30N 33°56' E 130°57'0 0.0
2017-Dec-08 08:00N 33°56' E 130°57'0 0.0
2017-Dec-08 07:30N 33°56' E 130°57'0 0.0
2017-Dec-08 07:00N 33°56' E 130°57'0 0.0
2017-Dec-08 06:30N 33°56' E 130°57'0 0.0
2017-Dec-08 06:00N 33°56' E 130°57'0 0.0
2017-Dec-08 05:30N 33°56' E 130°57'0 0.0
2017-Dec-08 05:00N 33°56' E 130°57'0 0.0
2017-Dec-08 04:30N 33°56' E 130°57'0 0.0
2017-Dec-08 04:00N 33°56' E 130°57'0 0.0
2017-Dec-08 03:31N 33°56' E 130°57'0 0.0
2017-Dec-08 03:00N 33°56' E 130°57'0 0.0
2017-Dec-08 02:30N 33°56' E 130°57'0 0.0
2017-Dec-08 02:00N 33°56' E 130°57'0 0.0
2017-Dec-08 01:30N 33°56' E 130°57'0 0.0
2017-Dec-08 01:00N 33°56' E 130°57'0 0.0
2017-Dec-08 00:30N 33°56' E 130°57'0 0.0
2017-Dec-08 00:00N 33°56' E 130°57'0 0.0
2017-Dec-07 23:31N 33°56' E 130°57'0 0.0
2017-Dec-07 23:00N 33°56' E 130°57'0 0.0
2017-Dec-07 22:30N 33°56' E 130°57'0 0.0
2017-Dec-07 22:00N 33°56' E 130°57'0 0.0
2017-Dec-07 21:30N 33°56' E 130°57'0 0.0
2017-Dec-07 21:00N 33°56' E 130°57'0 0.0
2017-Dec-07 20:30N 33°56' E 130°57'0 0.0
2017-Dec-07 20:00N 33°56' E 130°57'0 0.0
2017-Dec-07 19:30N 33°56' E 130°57'0 0.0
2017-Dec-07 19:00N 33°56' E 130°57'0 0.0
2017-Dec-07 18:30N 33°56' E 130°57'0 0.0
2017-Dec-07 18:00N 33°56' E 130°57'0 0.0
2017-Dec-07 17:30N 33°56' E 130°57'0 0.0
2017-Dec-07 17:00N 33°56' E 130°57'0 0.0
2017-Dec-07 16:30N 33°56' E 130°57'0 0.0
2017-Dec-07 16:00N 33°56' E 130°57'0 0.0
2017-Dec-07 15:30N 33°56' E 130°57'0 0.0
2017-Dec-07 15:00N 33°56' E 130°57'0 0.0
2017-Dec-07 14:30N 33°56' E 130°57'0 0.0
2017-Dec-07 14:00N 33°56' E 130°57'0 0.0
2017-Dec-07 13:30N 33°56' E 130°57'0 0.0
2017-Dec-07 13:00N 33°56' E 130°57'0 0.0
2017-Dec-07 12:30N 33°56' E 130°57'0 0.0
2017-Dec-07 12:00N 33°56' E 130°57'0 0.0
2017-Dec-07 11:30N 33°56' E 130°57'0 0.0
2017-Dec-07 11:00N 33°56' E 130°57'0 0.0
2017-Dec-07 10:30N 33°56' E 130°57'0 0.0
2017-Dec-07 10:00N 33°56' E 130°57'0 0.0
2017-Dec-07 09:31N 33°56' E 130°57'0 0.0
2017-Dec-07 09:00N 33°56' E 130°57'0 0.0
2017-Dec-07 08:30N 33°56' E 130°57'0 0.0
2017-Dec-07 08:00N 33°56' E 130°57'0 0.0
2017-Dec-07 07:30N 33°56' E 130°57'0 0.0
2017-Dec-07 07:00N 33°56' E 130°57'0 0.0
2017-Dec-07 06:30N 33°56' E 130°57'0 0.0
2017-Dec-07 06:00N 33°56' E 130°57'0 0.0
2017-Dec-07 05:30N 33°56' E 130°57'0 0.0
2017-Dec-07 05:00N 33°56' E 130°57'0 0.0
2017-Dec-07 04:31N 33°56' E 130°57'0 0.0
2017-Dec-07 04:00N 33°56' E 130°57'2 3.7
2017-Dec-07 03:30N 33°58' E 130°57'510.7
2017-Dec-07 03:00N 33°57' E 131°04'611.0
2017-Dec-07 02:30N 33°54' E 131°10'510.8
2017-Dec-07 02:00N 33°52' E 131°16'611.3
2017-Dec-07 01:30N 33°52' E 131°22'611.3
2017-Dec-07 01:00N 33°53' E 131°29'611.4
2017-Dec-07 00:30N 33°53' E 131°36'611.4
2017-Dec-06 23:59N 33°53' E 131°43'1411.1
2017-Dec-06 22:44N 33°53' E 131°60'410.4
2017-Dec-06 22:19N 33°52' E 132°05'3 9.5
2017-Dec-06 21:59N 33°50' E 132°08'1010.6
2017-Dec-06 21:04N 33°50' E 132°20'310.3
2017-Dec-06 20:48N 33°51' E 132°23'  
2017-Dec-02 10:50N 33°54' E 134°53'410.6
2017-Dec-02 10:26N 33°58' E 134°55'510.3
2017-Dec-02 09:59N 34°02' E 134°57'510.1
2017-Dec-02 09:30N 34°07' E 134°59'4 8.7
2017-Dec-02 09:00N 34°11' E 135°01'510.0
2017-Dec-02 08:30N 34°16' E 135°03'5 9.3
2017-Dec-02 08:00N 34°20' E 135°05'510.2
2017-Dec-02 07:30N 34°24' E 135°09'510.5
2017-Dec-02 07:00N 34°28' E 135°13'510.3
2017-Dec-02 06:30N 34°32' E 135°17'510.3
2017-Dec-02 06:01N 34°36' E 135°20'5 9.7
2017-Dec-02 05:31N 34°39' E 135°25'1 2.4
2017-Dec-02 05:00N 34°39' E 135°27'0 0.0
2017-Dec-02 04:30N 34°39' E 135°27'0 0.0
2017-Dec-02 04:00N 34°39' E 135°27'0 0.0
2017-Dec-02 03:30N 34°39' E 135°27'0 0.0
2017-Dec-02 03:00N 34°39' E 135°27'0 0.0
2017-Dec-02 02:30N 34°39' E 135°27'0 0.0
2017-Dec-02 02:00N 34°39' E 135°27'0 0.0
2017-Dec-02 01:30N 34°39' E 135°27'0 0.0
2017-Dec-02 01:00N 34°39' E 135°27'0 0.0
2017-Dec-02 00:30N 34°39' E 135°27'0 0.0
2017-Dec-02 00:00N 34°39' E 135°27'0 0.0
2017-Dec-01 23:30N 34°39' E 135°27'0 0.0
2017-Dec-01 23:00N 34°39' E 135°27'0 0.0
2017-Dec-01 22:30N 34°39' E 135°27'0 0.0
2017-Dec-01 22:00N 34°39' E 135°27'0 0.0
2017-Dec-01 21:30N 34°39' E 135°27'0 0.0
2017-Dec-01 21:00N 34°39' E 135°27'0 0.0
2017-Dec-01 20:30N 34°39' E 135°27'0 0.0
2017-Dec-01 20:00N 34°39' E 135°27'0 0.0
2017-Dec-01 19:30N 34°39' E 135°27'0 0.0
2017-Dec-01 19:00N 34°39' E 135°27'0 0.0
2017-Dec-01 18:30N 34°39' E 135°27'0 0.0
2017-Dec-01 18:00N 34°39' E 135°27'0 0.0
2017-Dec-01 17:30N 34°39' E 135°27'0 0.0
2017-Dec-01 17:00N 34°39' E 135°27'0 0.0
2017-Dec-01 16:30N 34°39' E 135°27'0 0.0
2017-Dec-01 16:00N 34°39' E 135°27'0 0.0
2017-Dec-01 15:30N 34°39' E 135°27'0 0.0
2017-Dec-01 15:00N 34°39' E 135°27'0 0.0
2017-Dec-01 14:30N 34°39' E 135°27'0 0.0
2017-Dec-01 14:00N 34°39' E 135°27'0 0.0
2017-Dec-01 13:30N 34°39' E 135°27'0 0.0
2017-Dec-01 13:00N 34°39' E 135°27'0 0.0
2017-Dec-01 12:30N 34°39' E 135°27'0 0.0
2017-Dec-01 12:00N 34°39' E 135°27'0 0.0
2017-Dec-01 11:30N 34°39' E 135°27'  

Dump ship's entire track history